sensor_id;sensor_type;location;lat;lon;timestamp;temperature;humidity
5848;DHT22;8756;49.29324300;8.70599800;2023-02-28T00:00:32;0.80;99.90
5848;DHT22;8756;49.29324300;8.70599800;2023-02-28T00:02:58;0.80;99.90
5848;DHT22;8756;49.29324300;8.70599800;2023-02-28T00:05:25;0.80;99.90
5848;DHT22;8756;49.29324300;8.70599800;2023-02-28T00:07:52;0.80;99.90
5848;DHT22;8756;49.29324300;8.70599800;2023-02-28T00:10:23;0.80;99.90
5848;DHT22;8756;49.29324300;8.70599800;2023-02-28T00:12:53;0.80;99.90
5848;DHT22;8756;49.29324300;8.70599800;2023-02-28T00:15:22;0.80;99.90
5848;DHT22;8756;49.29324300;8.70599800;2023-02-28T00:17:49;0.80;99.90
5848;DHT22;8756;49.29324300;8.70599800;2023-02-28T00:20:15;0.80;99.90
5848;DHT22;8756;49.29324300;8.70599800;2023-02-28T00:22:46;0.70;99.90
5848;DHT22;8756;49.29324300;8.70599800;2023-02-28T00:25:17;0.80;99.90
5848;DHT22;8756;49.29324300;8.70599800;2023-02-28T00:27:44;0.70;99.90
5848;DHT22;8756;49.29324300;8.70599800;2023-02-28T00:30:13;0.70;99.90
5848;DHT22;8756;49.29324300;8.70599800;2023-02-28T00:32:41;0.70;99.90
5848;DHT22;8756;49.29324300;8.70599800;2023-02-28T00:35:07;0.70;99.90
5848;DHT22;8756;49.29324300;8.70599800;2023-02-28T00:37:34;0.70;99.90
5848;DHT22;8756;49.29324300;8.70599800;2023-02-28T00:40:00;0.70;99.90
5848;DHT22;8756;49.29324300;8.70599800;2023-02-28T00:42:26;0.70;99.90
5848;DHT22;8756;49.29324300;8.70599800;2023-02-28T00:44:51;0.70;99.90
5848;DHT22;8756;49.29324300;8.70599800;2023-02-28T00:47:17;0.70;99.90
5848;DHT22;8756;49.29324300;8.70599800;2023-02-28T00:49:43;0.80;99.90
5848;DHT22;8756;49.29324300;8.70599800;2023-02-28T00:52:09;0.70;99.90
5848;DHT22;8756;49.29324300;8.70599800;2023-02-28T00:54:35;0.70;99.90
5848;DHT22;8756;49.29324300;8.70599800;2023-02-28T00:57:01;0.70;99.90
5848;DHT22;8756;49.29324300;8.70599800;2023-02-28T00:59:26;0.70;99.90
5848;DHT22;8756;49.29324300;8.70599800;2023-02-28T01:01:52;0.60;99.90
5848;DHT22;8756;49.29324300;8.70599800;2023-02-28T01:04:18;0.60;99.90
5848;DHT22;8756;49.29324300;8.70599800;2023-02-28T01:06:44;0.60;99.90
5848;DHT22;8756;49.29324300;8.70599800;2023-02-28T01:09:10;0.60;99.90
5848;DHT22;8756;49.29324300;8.70599800;2023-02-28T01:11:36;0.50;99.90
5848;DHT22;8756;49.29324300;8.70599800;2023-02-28T01:14:02;0.60;99.90
5848;DHT22;8756;49.29324300;8.70599800;2023-02-28T01:16:29;0.50;99.90
5848;DHT22;8756;49.29324300;8.70599800;2023-02-28T01:18:55;0.50;99.90
5848;DHT22;8756;49.29324300;8.70599800;2023-02-28T01:21:21;0.50;99.90
5848;DHT22;8756;49.29324300;8.70599800;2023-02-28T01:23:48;0.50;99.90
5848;DHT22;8756;49.29324300;8.70599800;2023-02-28T01:26:16;0.50;99.90
5848;DHT22;8756;49.29324300;8.70599800;2023-02-28T01:28:44;0.50;99.90
5848;DHT22;8756;49.29324300;8.70599800;2023-02-28T01:31:10;0.50;99.90
5848;DHT22;8756;49.29324300;8.70599800;2023-02-28T01:33:36;0.50;99.90
5848;DHT22;8756;49.29324300;8.70599800;2023-02-28T01:36:17;0.50;99.90
5848;DHT22;8756;49.29324300;8.70599800;2023-02-28T01:38:46;0.40;99.90
5848;DHT22;8756;49.29324300;8.70599800;2023-02-28T01:46:14;0.50;99.90
5848;DHT22;8756;49.29324300;8.70599800;2023-02-28T01:48:47;0.50;99.90
5848;DHT22;8756;49.29324300;8.70599800;2023-02-28T01:54:14;0.40;99.90
5848;DHT22;8756;49.29324300;8.70599800;2023-02-28T01:56:50;0.40;99.90
5848;DHT22;8756;49.29324300;8.70599800;2023-02-28T01:59:27;0.40;99.90
5848;DHT22;8756;49.29324300;8.70599800;2023-02-28T02:02:04;0.40;99.90
5848;DHT22;8756;49.29324300;8.70599800;2023-02-28T02:04:39;0.40;99.90
5848;DHT22;8756;49.29324300;8.70599800;2023-02-28T02:07:11;0.40;99.90
5848;DHT22;8756;49.29324300;8.70599800;2023-02-28T02:09:38;0.30;99.90
5848;DHT22;8756;49.29324300;8.70599800;2023-02-28T02:12:15;0.30;99.90
5848;DHT22;8756;49.29324300;8.70599800;2023-02-28T02:15:26;0.30;99.90
5848;DHT22;8756;49.29324300;8.70599800;2023-02-28T02:17:59;0.30;99.90
5848;DHT22;8756;49.29324300;8.70599800;2023-02-28T02:40:58;0.20;99.90
5848;DHT22;8756;49.29324300;8.70599800;2023-02-28T02:43:33;0.20;99.90
5848;DHT22;8756;49.29324300;8.70599800;2023-02-28T02:46:17;0.20;99.90
5848;DHT22;8756;49.29324300;8.70599800;2023-02-28T02:48:47;0.20;99.90
5848;DHT22;8756;49.29324300;8.70599800;2023-02-28T02:51:16;0.20;99.90
5848;DHT22;8756;49.29324300;8.70599800;2023-02-28T02:53:49;0.20;99.90
5848;DHT22;8756;49.29324300;8.70599800;2023-02-28T02:56:25;0.20;99.90
5848;DHT22;8756;49.29324300;8.70599800;2023-02-28T02:58:54;0.20;99.90
5848;DHT22;8756;49.29324300;8.70599800;2023-02-28T03:01:25;0.10;99.90
5848;DHT22;8756;49.29324300;8.70599800;2023-02-28T03:03:59;0.10;99.90
5848;DHT22;8756;49.29324300;8.70599800;2023-02-28T03:06:27;0.10;99.90
5848;DHT22;8756;49.29324300;8.70599800;2023-02-28T03:08:53;0.10;99.90
5848;DHT22;8756;49.29324300;8.70599800;2023-02-28T03:11:19;0.10;99.90
5848;DHT22;8756;49.29324300;8.70599800;2023-02-28T03:14:01;0.10;99.90
5848;DHT22;8756;49.29324300;8.70599800;2023-02-28T03:22:45;0.10;99.90
5848;DHT22;8756;49.29324300;8.70599800;2023-02-28T03:25:38;0.10;99.90
5848;DHT22;8756;49.29324300;8.70599800;2023-02-28T03:31:11;0.00;99.90
5848;DHT22;8756;49.29324300;8.70599800;2023-02-28T03:34:10;0.00;99.90
5848;DHT22;8756;49.29324300;8.70599800;2023-02-28T03:36:42;0.00;99.90
5848;DHT22;8756;49.29324300;8.70599800;2023-02-28T03:39:20;0.00;99.90
5848;DHT22;8756;49.29324300;8.70599800;2023-02-28T03:42:04;-0.10;99.90
5848;DHT22;8756;49.29324300;8.70599800;2023-02-28T03:44:48;-0.10;99.90
5848;DHT22;8756;49.29324300;8.70599800;2023-02-28T03:47:27;-0.10;99.90
5848;DHT22;8756;49.29324300;8.70599800;2023-02-28T03:50:05;-0.10;99.90
5848;DHT22;8756;49.29324300;8.70599800;2023-02-28T03:52:35;-0.10;99.90
5848;DHT22;8756;49.29324300;8.70599800;2023-02-28T03:55:08;-0.20;99.90
5848;DHT22;8756;49.29324300;8.70599800;2023-02-28T03:57:59;-0.10;99.90
5848;DHT22;8756;49.29324300;8.70599800;2023-02-28T04:00:39;-0.10;99.90
5848;DHT22;8756;49.29324300;8.70599800;2023-02-28T04:03:08;-0.10;99.90
5848;DHT22;8756;49.29324300;8.70599800;2023-02-28T04:05:48;-0.10;99.90
5848;DHT22;8756;49.29324300;8.70599800;2023-02-28T04:08:16;-0.20;99.90
5848;DHT22;8756;49.29324300;8.70599800;2023-02-28T04:10:43;-0.20;99.90
5848;DHT22;8756;49.29324300;8.70599800;2023-02-28T04:13:10;-0.20;99.90
5848;DHT22;8756;49.29324300;8.70599800;2023-02-28T04:15:36;-0.20;99.90
5848;DHT22;8756;49.29324300;8.70599800;2023-02-28T04:18:02;-0.20;99.90
5848;DHT22;8756;49.29324300;8.70599800;2023-02-28T04:20:28;-0.20;99.90
5848;DHT22;8756;49.29324300;8.70599800;2023-02-28T04:22:53;-0.20;99.90
5848;DHT22;8756;49.29324300;8.70599800;2023-02-28T04:25:19;-0.20;99.90
5848;DHT22;8756;49.29324300;8.70599800;2023-02-28T04:27:44;-0.20;99.90
5848;DHT22;8756;49.29324300;8.70599800;2023-02-28T04:30:11;-0.20;99.90
5848;DHT22;8756;49.29324300;8.70599800;2023-02-28T04:32:37;-0.20;99.90
5848;DHT22;8756;49.29324300;8.70599800;2023-02-28T04:35:03;-0.20;99.90
5848;DHT22;8756;49.29324300;8.70599800;2023-02-28T04:37:29;-0.20;99.90
5848;DHT22;8756;49.29324300;8.70599800;2023-02-28T04:39:54;-0.20;99.90
5848;DHT22;8756;49.29324300;8.70599800;2023-02-28T04:42:20;-0.20;99.90
5848;DHT22;8756;49.29324300;8.70599800;2023-02-28T04:44:46;-0.20;99.90
5848;DHT22;8756;49.29324300;8.70599800;2023-02-28T04:47:12;-0.20;99.90
5848;DHT22;8756;49.29324300;8.70599800;2023-02-28T04:49:38;-0.20;99.90
5848;DHT22;8756;49.29324300;8.70599800;2023-02-28T04:52:04;-0.10;99.90
5848;DHT22;8756;49.29324300;8.70599800;2023-02-28T04:54:30;-0.10;99.90
5848;DHT22;8756;49.29324300;8.70599800;2023-02-28T04:56:56;-0.10;99.90
5848;DHT22;8756;49.29324300;8.70599800;2023-02-28T04:59:21;-0.10;99.90
5848;DHT22;8756;49.29324300;8.70599800;2023-02-28T05:01:48;-0.10;99.90
5848;DHT22;8756;49.29324300;8.70599800;2023-02-28T05:04:15;-0.10;99.90
5848;DHT22;8756;49.29324300;8.70599800;2023-02-28T05:06:40;0.00;99.90
5848;DHT22;8756;49.29324300;8.70599800;2023-02-28T05:09:06;0.00;99.90
5848;DHT22;8756;49.29324300;8.70599800;2023-02-28T05:11:33;0.00;99.90
5848;DHT22;8756;49.29324300;8.70599800;2023-02-28T05:14:01;0.10;99.90
5848;DHT22;8756;49.29324300;8.70599800;2023-02-28T05:16:28;0.00;99.90
5848;DHT22;8756;49.29324300;8.70599800;2023-02-28T05:18:53;0.10;99.90
5848;DHT22;8756;49.29324300;8.70599800;2023-02-28T05:21:30;0.10;99.90
5848;DHT22;8756;49.29324300;8.70599800;2023-02-28T05:24:02;0.10;99.90
5848;DHT22;8756;49.29324300;8.70599800;2023-02-28T05:26:30;0.10;99.90
5848;DHT22;8756;49.29324300;8.70599800;2023-02-28T05:28:56;0.10;99.90
5848;DHT22;8756;49.29324300;8.70599800;2023-02-28T05:31:22;0.10;99.90
5848;DHT22;8756;49.29324300;8.70599800;2023-02-28T05:33:48;0.10;99.90
5848;DHT22;8756;49.29324300;8.70599800;2023-02-28T05:36:14;0.20;99.90
5848;DHT22;8756;49.29324300;8.70599800;2023-02-28T05:38:40;0.20;99.90
5848;DHT22;8756;49.29324300;8.70599800;2023-02-28T05:41:09;0.10;99.90
5848;DHT22;8756;49.29324300;8.70599800;2023-02-28T05:43:37;0.10;99.90
5848;DHT22;8756;49.29324300;8.70599800;2023-02-28T05:46:04;0.20;99.90
5848;DHT22;8756;49.29324300;8.70599800;2023-02-28T05:48:32;0.10;99.90
5848;DHT22;8756;49.29324300;8.70599800;2023-02-28T05:50:58;0.10;99.90
5848;DHT22;8756;49.29324300;8.70599800;2023-02-28T05:53:24;0.10;99.90
5848;DHT22;8756;49.29324300;8.70599800;2023-02-28T05:55:50;0.10;99.90
5848;DHT22;8756;49.29324300;8.70599800;2023-02-28T05:58:15;0.10;99.90
5848;DHT22;8756;49.29324300;8.70599800;2023-02-28T06:00:41;0.10;99.90
5848;DHT22;8756;49.29324300;8.70599800;2023-02-28T06:03:06;0.10;99.90
5848;DHT22;8756;49.29324300;8.70599800;2023-02-28T06:05:32;0.00;99.90
5848;DHT22;8756;49.29324300;8.70599800;2023-02-28T06:07:58;0.10;99.90
5848;DHT22;8756;49.29324300;8.70599800;2023-02-28T06:10:24;0.10;99.90
5848;DHT22;8756;49.29324300;8.70599800;2023-02-28T06:12:49;0.10;99.90
5848;DHT22;8756;49.29324300;8.70599800;2023-02-28T06:15:15;0.10;99.90
5848;DHT22;8756;49.29324300;8.70599800;2023-02-28T06:17:43;0.00;99.90
5848;DHT22;8756;49.29324300;8.70599800;2023-02-28T06:20:10;0.00;99.90
5848;DHT22;8756;49.29324300;8.70599800;2023-02-28T06:22:38;0.00;99.90
5848;DHT22;8756;49.29324300;8.70599800;2023-02-28T06:25:05;0.00;99.90
5848;DHT22;8756;49.29324300;8.70599800;2023-02-28T06:27:33;0.00;99.90
5848;DHT22;8756;49.29324300;8.70599800;2023-02-28T06:29:59;0.00;99.90
5848;DHT22;8756;49.29324300;8.70599800;2023-02-28T06:32:25;0.00;99.90
5848;DHT22;8756;49.29324300;8.70599800;2023-02-28T06:34:50;-0.10;99.90
5848;DHT22;8756;49.29324300;8.70599800;2023-02-28T06:37:17;-0.10;99.90
5848;DHT22;8756;49.29324300;8.70599800;2023-02-28T06:39:43;0.00;99.90
5848;DHT22;8756;49.29324300;8.70599800;2023-02-28T06:42:09;0.00;99.90
5848;DHT22;8756;49.29324300;8.70599800;2023-02-28T06:44:35;0.00;99.90
5848;DHT22;8756;49.29324300;8.70599800;2023-02-28T06:47:02;0.00;99.90
5848;DHT22;8756;49.29324300;8.70599800;2023-02-28T06:49:30;0.00;99.90
5848;DHT22;8756;49.29324300;8.70599800;2023-02-28T06:51:56;0.00;99.90
5848;DHT22;8756;49.29324300;8.70599800;2023-02-28T06:54:22;0.00;99.90
5848;DHT22;8756;49.29324300;8.70599800;2023-02-28T06:56:47;0.00;99.90
5848;DHT22;8756;49.29324300;8.70599800;2023-02-28T06:59:13;0.00;99.90
5848;DHT22;8756;49.29324300;8.70599800;2023-02-28T07:01:40;0.00;99.90
5848;DHT22;8756;49.29324300;8.70599800;2023-02-28T07:04:06;0.10;99.90
5848;DHT22;8756;49.29324300;8.70599800;2023-02-28T07:06:32;0.10;99.90
5848;DHT22;8756;49.29324300;8.70599800;2023-02-28T07:08:57;0.10;99.90
5848;DHT22;8756;49.29324300;8.70599800;2023-02-28T07:11:25;0.20;99.90
5848;DHT22;8756;49.29324300;8.70599800;2023-02-28T07:13:55;0.20;99.90
5848;DHT22;8756;49.29324300;8.70599800;2023-02-28T07:16:25;0.20;99.90
5848;DHT22;8756;49.29324300;8.70599800;2023-02-28T07:18:54;0.20;99.90
5848;DHT22;8756;49.29324300;8.70599800;2023-02-28T07:21:20;0.20;99.90
5848;DHT22;8756;49.29324300;8.70599800;2023-02-28T07:23:49;0.30;99.90
5848;DHT22;8756;49.29324300;8.70599800;2023-02-28T07:26:17;0.30;99.90
5848;DHT22;8756;49.29324300;8.70599800;2023-02-28T07:28:45;0.30;99.90
5848;DHT22;8756;49.29324300;8.70599800;2023-02-28T07:31:14;0.40;99.90
5848;DHT22;8756;49.29324300;8.70599800;2023-02-28T07:33:41;0.40;99.90
5848;DHT22;8756;49.29324300;8.70599800;2023-02-28T07:36:14;0.40;99.90
5848;DHT22;8756;49.29324300;8.70599800;2023-02-28T07:38:42;0.40;99.90
5848;DHT22;8756;49.29324300;8.70599800;2023-02-28T07:41:09;0.40;99.90
5848;DHT22;8756;49.29324300;8.70599800;2023-02-28T07:43:35;0.40;99.90
5848;DHT22;8756;49.29324300;8.70599800;2023-02-28T07:46:10;0.40;99.90
5848;DHT22;8756;49.29324300;8.70599800;2023-02-28T07:48:37;0.50;99.90
5848;DHT22;8756;49.29324300;8.70599800;2023-02-28T07:51:03;0.50;99.90
5848;DHT22;8756;49.29324300;8.70599800;2023-02-28T07:53:29;0.50;99.90
5848;DHT22;8756;49.29324300;8.70599800;2023-02-28T07:55:59;0.50;99.90
5848;DHT22;8756;49.29324300;8.70599800;2023-02-28T07:58:26;0.50;99.90
5848;DHT22;8756;49.29324300;8.70599800;2023-02-28T08:00:53;0.60;99.90
5848;DHT22;8756;49.29324300;8.70599800;2023-02-28T08:03:20;0.60;99.90
5848;DHT22;8756;49.29324300;8.70599800;2023-02-28T08:05:48;0.60;99.90
5848;DHT22;8756;49.29324300;8.70599800;2023-02-28T08:08:14;0.70;99.90
5848;DHT22;8756;49.29324300;8.70599800;2023-02-28T08:10:40;0.70;99.90
5848;DHT22;8756;49.29324300;8.70599800;2023-02-28T08:13:06;0.70;99.90
5848;DHT22;8756;49.29324300;8.70599800;2023-02-28T08:15:32;0.70;99.90
5848;DHT22;8756;49.29324300;8.70599800;2023-02-28T08:17:58;0.70;99.90
5848;DHT22;8756;49.29324300;8.70599800;2023-02-28T08:20:25;0.80;99.90
5848;DHT22;8756;49.29324300;8.70599800;2023-02-28T08:22:51;0.80;99.90
5848;DHT22;8756;49.29324300;8.70599800;2023-02-28T08:25:17;0.80;99.90
5848;DHT22;8756;49.29324300;8.70599800;2023-02-28T08:27:43;0.80;99.90
5848;DHT22;8756;49.29324300;8.70599800;2023-02-28T08:30:13;0.90;99.90
5848;DHT22;8756;49.29324300;8.70599800;2023-02-28T08:32:40;0.90;99.90
5848;DHT22;8756;49.29324300;8.70599800;2023-02-28T08:35:06;0.90;99.90
5848;DHT22;8756;49.29324300;8.70599800;2023-02-28T08:37:34;0.90;99.90
5848;DHT22;8756;49.29324300;8.70599800;2023-02-28T08:40:00;0.90;99.90
5848;DHT22;8756;49.29324300;8.70599800;2023-02-28T08:42:26;1.00;99.90
5848;DHT22;8756;49.29324300;8.70599800;2023-02-28T08:44:51;1.00;99.90
5848;DHT22;8756;49.29324300;8.70599800;2023-02-28T08:47:17;1.10;99.90
5848;DHT22;8756;49.29324300;8.70599800;2023-02-28T08:49:43;1.10;99.90
5848;DHT22;8756;49.29324300;8.70599800;2023-02-28T08:52:08;1.10;99.90
5848;DHT22;8756;49.29324300;8.70599800;2023-02-28T08:54:35;1.20;99.90
5848;DHT22;8756;49.29324300;8.70599800;2023-02-28T08:57:01;1.20;99.90
5848;DHT22;8756;49.29324300;8.70599800;2023-02-28T08:59:27;1.30;99.90
5848;DHT22;8756;49.29324300;8.70599800;2023-02-28T09:01:53;1.30;99.90
5848;DHT22;8756;49.29324300;8.70599800;2023-02-28T09:04:19;1.30;99.90
5848;DHT22;8756;49.29324300;8.70599800;2023-02-28T09:06:44;1.40;99.90
5848;DHT22;8756;49.29324300;8.70599800;2023-02-28T09:09:10;1.40;99.90
5848;DHT22;8756;49.29324300;8.70599800;2023-02-28T09:11:36;1.50;99.90
5848;DHT22;8756;49.29324300;8.70599800;2023-02-28T09:14:02;1.60;99.90
5848;DHT22;8756;49.29324300;8.70599800;2023-02-28T09:16:29;1.60;99.90
5848;DHT22;8756;49.29324300;8.70599800;2023-02-28T09:18:56;1.70;99.90
5848;DHT22;8756;49.29324300;8.70599800;2023-02-28T09:21:22;1.70;99.90
5848;DHT22;8756;49.29324300;8.70599800;2023-02-28T09:23:49;1.70;99.90
5848;DHT22;8756;49.29324300;8.70599800;2023-02-28T09:26:22;1.70;99.90
5848;DHT22;8756;49.29324300;8.70599800;2023-02-28T09:28:50;1.80;99.90
5848;DHT22;8756;49.29324300;8.70599800;2023-02-28T09:31:22;1.90;99.90
5848;DHT22;8756;49.29324300;8.70599800;2023-02-28T09:33:51;1.90;99.90
5848;DHT22;8756;49.29324300;8.70599800;2023-02-28T09:36:21;1.90;99.90
5848;DHT22;8756;49.29324300;8.70599800;2023-02-28T09:38:48;2.00;99.90
5848;DHT22;8756;49.29324300;8.70599800;2023-02-28T09:41:17;2.10;99.90
5848;DHT22;8756;49.29324300;8.70599800;2023-02-28T09:43:53;2.10;99.90
5848;DHT22;8756;49.29324300;8.70599800;2023-02-28T09:46:37;2.10;99.90
5848;DHT22;8756;49.29324300;8.70599800;2023-02-28T09:49:10;2.10;99.90
5848;DHT22;8756;49.29324300;8.70599800;2023-02-28T09:51:48;2.20;99.90
5848;DHT22;8756;49.29324300;8.70599800;2023-02-28T09:54:19;2.20;99.90
5848;DHT22;8756;49.29324300;8.70599800;2023-02-28T09:57:08;2.30;99.90
5848;DHT22;8756;49.29324300;8.70599800;2023-02-28T10:05:56;2.40;99.90
5848;DHT22;8756;49.29324300;8.70599800;2023-02-28T10:08:37;2.40;99.90
5848;DHT22;8756;49.29324300;8.70599800;2023-02-28T10:11:09;2.50;99.90
5848;DHT22;8756;49.29324300;8.70599800;2023-02-28T10:16:27;2.50;99.90
5848;DHT22;8756;49.29324300;8.70599800;2023-02-28T10:19:03;2.50;99.90
5848;DHT22;8756;49.29324300;8.70599800;2023-02-28T10:21:38;2.60;99.90
5848;DHT22;8756;49.29324300;8.70599800;2023-02-28T10:24:14;2.70;99.90
5848;DHT22;8756;49.29324300;8.70599800;2023-02-28T10:26:47;2.70;99.90
5848;DHT22;8756;49.29324300;8.70599800;2023-02-28T10:29:14;2.80;99.90
5848;DHT22;8756;49.29324300;8.70599800;2023-02-28T10:31:40;2.70;99.90
5848;DHT22;8756;49.29324300;8.70599800;2023-02-28T10:34:07;2.80;99.90
5848;DHT22;8756;49.29324300;8.70599800;2023-02-28T10:36:33;2.80;99.90
5848;DHT22;8756;49.29324300;8.70599800;2023-02-28T10:38:58;2.80;99.90
5848;DHT22;8756;49.29324300;8.70599800;2023-02-28T10:41:31;2.90;99.90
5848;DHT22;8756;49.29324300;8.70599800;2023-02-28T10:44:15;2.90;99.90
5848;DHT22;8756;49.29324300;8.70599800;2023-02-28T10:46:45;2.90;99.90
5848;DHT22;8756;49.29324300;8.70599800;2023-02-28T10:49:26;2.90;99.90
5848;DHT22;8756;49.29324300;8.70599800;2023-02-28T10:52:00;2.90;99.90
5848;DHT22;8756;49.29324300;8.70599800;2023-02-28T10:54:31;3.00;99.90
5848;DHT22;8756;49.29324300;8.70599800;2023-02-28T10:57:19;3.00;99.90
5848;DHT22;8756;49.29324300;8.70599800;2023-02-28T11:00:07;3.10;99.90
5848;DHT22;8756;49.29324300;8.70599800;2023-02-28T11:02:40;3.20;99.90
5848;DHT22;8756;49.29324300;8.70599800;2023-02-28T11:05:31;3.30;99.90
5848;DHT22;8756;49.29324300;8.70599800;2023-02-28T11:08:17;3.40;99.90
5848;DHT22;8756;49.29324300;8.70599800;2023-02-28T11:10:48;3.50;99.90
5848;DHT22;8756;49.29324300;8.70599800;2023-02-28T11:13:21;3.60;99.90
5848;DHT22;8756;49.29324300;8.70599800;2023-02-28T11:15:57;3.60;99.90
5848;DHT22;8756;49.29324300;8.70599800;2023-02-28T11:18:29;3.70;99.90
5848;DHT22;8756;49.29324300;8.70599800;2023-02-28T11:20:58;3.70;99.90
5848;DHT22;8756;49.29324300;8.70599800;2023-02-28T11:23:27;3.80;99.90
5848;DHT22;8756;49.29324300;8.70599800;2023-02-28T11:25:57;3.80;99.90
5848;DHT22;8756;49.29324300;8.70599800;2023-02-28T11:28:36;3.90;99.90
5848;DHT22;8756;49.29324300;8.70599800;2023-02-28T11:33:47;4.00;99.90
5848;DHT22;8756;49.29324300;8.70599800;2023-02-28T11:36:25;4.10;99.90
5848;DHT22;8756;49.29324300;8.70599800;2023-02-28T11:38:55;4.10;99.90
5848;DHT22;8756;49.29324300;8.70599800;2023-02-28T11:41:35;4.10;99.90
5848;DHT22;8756;49.29324300;8.70599800;2023-02-28T11:47:38;4.20;99.90
5848;DHT22;8756;49.29324300;8.70599800;2023-02-28T11:50:40;4.20;99.90
5848;DHT22;8756;49.29324300;8.70599800;2023-02-28T11:53:36;4.30;99.90
5848;DHT22;8756;49.29324300;8.70599800;2023-02-28T11:56:17;4.30;99.90
5848;DHT22;8756;49.29324300;8.70599800;2023-02-28T12:02:45;4.30;99.90
5848;DHT22;8756;49.29324300;8.70599800;2023-02-28T12:05:34;4.40;99.90
5848;DHT22;8756;49.29324300;8.70599800;2023-02-28T12:14:29;4.40;99.90
5848;DHT22;8756;49.29324300;8.70599800;2023-02-28T12:20:05;4.30;99.90
5848;DHT22;8756;49.29324300;8.70599800;2023-02-28T12:26:23;4.20;99.90
5848;DHT22;8756;49.29324300;8.70599800;2023-02-28T12:29:19;4.20;99.90
5848;DHT22;8756;49.29324300;8.70599800;2023-02-28T12:32:04;4.30;99.90
5848;DHT22;8756;49.29324300;8.70599800;2023-02-28T12:34:36;4.20;99.90
5848;DHT22;8756;49.29324300;8.70599800;2023-02-28T12:37:46;4.20;99.90
5848;DHT22;8756;49.29324300;8.70599800;2023-02-28T12:40:20;4.20;99.90
5848;DHT22;8756;49.29324300;8.70599800;2023-02-28T12:42:52;4.20;99.90
5848;DHT22;8756;49.29324300;8.70599800;2023-02-28T12:45:24;4.30;99.90
5848;DHT22;8756;49.29324300;8.70599800;2023-02-28T12:48:07;4.30;99.90
5848;DHT22;8756;49.29324300;8.70599800;2023-02-28T12:50:34;4.30;99.90
5848;DHT22;8756;49.29324300;8.70599800;2023-02-28T12:59:00;4.20;99.90
5848;DHT22;8756;49.29324300;8.70599800;2023-02-28T13:02:18;4.20;99.90
5848;DHT22;8756;49.29324300;8.70599800;2023-02-28T13:10:48;4.20;99.90
5848;DHT22;8756;49.29324300;8.70599800;2023-02-28T13:13:24;4.30;99.90
5848;DHT22;8756;49.29324300;8.70599800;2023-02-28T13:15:58;4.30;99.90
5848;DHT22;8756;49.29324300;8.70599800;2023-02-28T13:21:01;4.40;99.90
5848;DHT22;8756;49.29324300;8.70599800;2023-02-28T13:26:17;4.50;99.90
5848;DHT22;8756;49.29324300;8.70599800;2023-02-28T13:31:20;4.60;99.90
5848;DHT22;8756;49.29324300;8.70599800;2023-02-28T13:58:05;4.90;99.90
5848;DHT22;8756;49.29324300;8.70599800;2023-02-28T14:06:37;5.00;99.90
5848;DHT22;8756;49.29324300;8.70599800;2023-02-28T14:11:54;4.90;99.90
5848;DHT22;8756;49.29324300;8.70599800;2023-02-28T14:17:06;5.00;99.90
5848;DHT22;8756;49.29324300;8.70599800;2023-02-28T14:19:36;4.90;99.90
5848;DHT22;8756;49.29324300;8.70599800;2023-02-28T14:22:18;4.90;99.90
5848;DHT22;8756;49.29324300;8.70599800;2023-02-28T14:31:12;4.90;99.90
5848;DHT22;8756;49.29324300;8.70599800;2023-02-28T14:36:40;5.00;99.90
5848;DHT22;8756;49.29324300;8.70599800;2023-02-28T14:39:20;5.00;99.90
5848;DHT22;8756;49.29324300;8.70599800;2023-02-28T14:41:47;5.00;99.90
5848;DHT22;8756;49.29324300;8.70599800;2023-02-28T14:44:22;5.00;99.90
5848;DHT22;8756;49.29324300;8.70599800;2023-02-28T14:46:55;5.00;99.90
5848;DHT22;8756;49.29324300;8.70599800;2023-02-28T14:49:35;5.00;99.90
5848;DHT22;8756;49.29324300;8.70599800;2023-02-28T14:52:17;5.00;99.90
5848;DHT22;8756;49.29324300;8.70599800;2023-02-28T14:54:46;5.00;99.90
5848;DHT22;8756;49.29324300;8.70599800;2023-02-28T14:57:39;4.90;99.90
5848;DHT22;8756;49.29324300;8.70599800;2023-02-28T15:02:52;5.00;99.90
5848;DHT22;8756;49.29324300;8.70599800;2023-02-28T15:05:31;5.00;99.90
5848;DHT22;8756;49.29324300;8.70599800;2023-02-28T15:08:14;5.00;99.90
5848;DHT22;8756;49.29324300;8.70599800;2023-02-28T15:11:13;4.90;99.90
5848;DHT22;8756;49.29324300;8.70599800;2023-02-28T15:13:42;4.90;99.90
5848;DHT22;8756;49.29324300;8.70599800;2023-02-28T15:16:12;4.90;99.90
5848;DHT22;8756;49.29324300;8.70599800;2023-02-28T15:19:00;4.90;99.90
5848;DHT22;8756;49.29324300;8.70599800;2023-02-28T15:21:31;4.80;99.90
5848;DHT22;8756;49.29324300;8.70599800;2023-02-28T15:27:07;4.80;99.90
5848;DHT22;8756;49.29324300;8.70599800;2023-02-28T15:29:51;4.70;99.90
5848;DHT22;8756;49.29324300;8.70599800;2023-02-28T15:32:39;4.70;99.90
5848;DHT22;8756;49.29324300;8.70599800;2023-02-28T15:35:27;4.70;99.90
5848;DHT22;8756;49.29324300;8.70599800;2023-02-28T15:38:12;4.70;99.90
5848;DHT22;8756;49.29324300;8.70599800;2023-02-28T15:40:46;4.70;99.90
5848;DHT22;8756;49.29324300;8.70599800;2023-02-28T15:43:33;4.70;99.90
5848;DHT22;8756;49.29324300;8.70599800;2023-02-28T15:46:03;4.80;99.90
5848;DHT22;8756;49.29324300;8.70599800;2023-02-28T15:48:36;4.80;99.90
5848;DHT22;8756;49.29324300;8.70599800;2023-02-28T15:54:24;4.70;99.90
5848;DHT22;8756;49.29324300;8.70599800;2023-02-28T15:56:51;4.70;99.90
5848;DHT22;8756;49.29324300;8.70599800;2023-02-28T15:59:21;4.70;99.90
5848;DHT22;8756;49.29324300;8.70599800;2023-02-28T16:02:15;4.70;99.90
5848;DHT22;8756;49.29324300;8.70599800;2023-02-28T16:07:54;4.70;99.90
5848;DHT22;8756;49.29324300;8.70599800;2023-02-28T16:10:22;4.60;99.90
5848;DHT22;8756;49.29324300;8.70599800;2023-02-28T16:12:53;4.60;99.90
5848;DHT22;8756;49.29324300;8.70599800;2023-02-28T16:17:52;4.60;99.90
5848;DHT22;8756;49.29324300;8.70599800;2023-02-28T16:20:21;4.60;99.90
5848;DHT22;8756;49.29324300;8.70599800;2023-02-28T16:22:49;4.60;99.90
5848;DHT22;8756;49.29324300;8.70599800;2023-02-28T16:25:18;4.60;99.90
5848;DHT22;8756;49.29324300;8.70599800;2023-02-28T16:27:50;4.50;99.90
5848;DHT22;8756;49.29324300;8.70599800;2023-02-28T16:30:24;4.50;99.90
5848;DHT22;8756;49.29324300;8.70599800;2023-02-28T16:32:53;4.50;99.90
5848;DHT22;8756;49.29324300;8.70599800;2023-02-28T16:35:21;4.50;99.90
5848;DHT22;8756;49.29324300;8.70599800;2023-02-28T16:37:47;4.40;99.90
5848;DHT22;8756;49.29324300;8.70599800;2023-02-28T16:40:18;4.40;99.90
5848;DHT22;8756;49.29324300;8.70599800;2023-02-28T16:42:48;4.40;99.90
5848;DHT22;8756;49.29324300;8.70599800;2023-02-28T16:45:23;4.40;99.90
5848;DHT22;8756;49.29324300;8.70599800;2023-02-28T16:47:50;4.40;99.90